Time;durP1;ratioP1;P1;durP2;ratioP2;P2;SDS_P1;SDS_P2;PMS_P1;PMS_P2;Temp;Humidity;BMP_temperature;BMP_pressure;BME280_temperature;BME280_humidity;BME280_pressure;Samples;Min_cycle;Max_cycle;Signal;HPM_P1;HPM_P2
2023/08/14 00:02:22;;;;;;;6.80;4.80;;;;;;;20.87;100.00;95961.22;5094840;28;20024;-67
2023/08/14 00:04:50;;;;;;;5.93;4.88;;;;;;;20.84;100.00;95961.63;5093710;28;20637;-67
2023/08/14 00:07:15;;;;;;;7.10;4.53;;;;;;;20.81;100.00;95958.56;5094727;28;20034;-66
2023/08/14 00:09:41;;;;;;;7.57;4.70;;;;;;;20.73;100.00;95940.78;5094482;28;20028;-66
2023/08/14 00:12:06;;;;;;;6.90;4.47;;;;;;;20.66;100.00;95926.53;5093370;28;20034;-67
2023/08/14 00:14:32;;;;;;;5.20;4.70;;;;;;;20.64;100.00;95918.72;5099765;28;20024;-67
2023/08/14 00:16:58;;;;;;;5.10;4.10;;;;;;;20.64;100.00;95913.38;5105747;28;20031;-67
2023/08/14 00:19:24;;;;;;;6.85;4.95;;;;;;;20.63;100.00;95910.91;5094128;28;20143;-67
2023/08/14 00:21:49;;;;;;;5.40;4.82;;;;;;;20.62;100.00;95910.09;5099602;28;20091;-67
2023/08/14 00:24:15;;;;;;;6.03;4.90;;;;;;;20.60;100.00;95910.28;5096385;28;20484;-67
2023/08/14 00:26:40;;;;;;;6.03;4.60;;;;;;;20.59;100.00;95903.28;5099728;27;20024;-67
2023/08/14 00:29:05;;;;;;;5.20;4.53;;;;;;;20.59;100.00;95903.28;5094120;28;20040;-67
2023/08/14 00:31:31;;;;;;;6.32;5.00;;;;;;;20.56;100.00;95895.66;5103749;28;20027;-67
2023/08/14 00:33:56;;;;;;;4.80;4.40;;;;;;;20.54;100.00;95895.03;5104002;27;20059;-66
2023/08/14 00:36:22;;;;;;;4.75;4.25;;;;;;;20.51;100.00;95892.78;5109572;28;20035;-67
2023/08/14 00:38:47;;;;;;;5.50;4.22;;;;;;;20.46;100.00;95890.69;5100459;28;20101;-67
2023/08/14 00:41:12;;;;;;;6.22;4.60;;;;;;;20.41;100.00;95887.78;5102699;28;20495;-67
2023/08/14 00:43:38;;;;;;;5.75;4.78;;;;;;;20.40;100.00;95883.47;5087601;28;20505;-67
2023/08/14 00:46:04;;;;;;;5.55;5.00;;;;;;;20.35;100.00;95867.22;5103143;28;20028;-67
2023/08/14 00:48:30;;;;;;;7.97;4.65;;;;;;;20.33;100.00;95871.91;5105794;28;20031;-66
2023/08/14 00:50:56;;;;;;;6.22;5.07;;;;;;;20.28;100.00;95874.34;5109803;28;20036;-67
2023/08/14 00:53:25;;;;;;;6.22;4.55;;;;;;;20.23;100.00;95856.25;5096329;28;20078;-67
2023/08/14 00:55:51;;;;;;;5.38;4.78;;;;;;;20.20;100.00;95853.16;5105096;28;20035;-67
2023/08/14 00:58:16;;;;;;;6.43;4.78;;;;;;;20.14;100.00;95842.25;5096115;28;20400;-67
2023/08/14 01:00:43;;;;;;;5.65;4.88;;;;;;;20.13;100.00;95840.59;5095408;28;20016;-66
2023/08/14 01:03:09;;;;;;;6.28;5.00;;;;;;;20.09;100.00;95831.28;5108747;28;20028;-67
2023/08/14 01:05:35;;;;;;;9.77;4.60;;;;;;;20.05;100.00;95822.03;5094034;28;20062;-66
2023/08/14 01:08:00;;;;;;;5.93;5.20;;;;;;;20.01;100.00;95808.25;5094998;28;20031;-66
2023/08/14 01:10:36;;;;;;;5.25;4.50;;;;;;;19.98;100.00;95807.81;5075741;28;20020;-67
2023/08/14 01:13:14;;;;;;;5.00;4.57;;;;;;;19.98;100.00;95795.28;5101183;28;20522;-67
2023/08/14 01:15:44;;;;;;;5.60;5.00;;;;;;;20.01;100.00;95791.41;5099224;28;20039;-67
2023/08/14 01:18:13;;;;;;;5.47;4.57;;;;;;;19.99;100.00;95788.91;5097709;28;20028;-67
2023/08/14 01:20:40;;;;;;;6.82;5.03;;;;;;;19.95;100.00;95789.53;5093874;28;20077;-67
2023/08/14 01:23:17;;;;;;;7.25;4.82;;;;;;;19.91;100.00;95773.06;5092277;28;20024;-67
2023/08/14 01:25:43;;;;;;;8.77;4.40;;;;;;;19.81;100.00;95762.72;5095356;28;20074;-66
2023/08/14 01:28:09;;;;;;;5.85;4.68;;;;;;;19.79;100.00;95746.06;5098962;28;20405;-66
2023/08/14 01:30:34;;;;;;;8.70;5.10;;;;;;;19.80;100.00;95741.56;5094070;28;20032;-66
2023/08/14 01:33:00;;;;;;;7.30;5.15;;;;;;;19.84;100.00;95750.81;5109064;28;20020;-66
2023/08/14 01:35:41;;;;;;;8.73;5.20;;;;;;;19.79;100.00;95756.75;5104785;28;20076;-66
2023/08/14 01:38:25;;;;;;;6.20;5.60;;;;;;;19.75;100.00;95750.16;5093707;28;20020;-66
2023/08/14 01:41:08;;;;;;;8.30;5.07;;;;;;;19.63;100.00;95741.03;5094497;28;20020;-66
2023/08/14 01:43:40;;;;;;;6.38;4.85;;;;;;;19.63;100.00;95723.19;5111078;28;20035;-66
2023/08/14 01:46:08;;;;;;;4.70;4.40;;;;;;;19.61;100.00;95719.91;5105156;28;20684;-66
2023/08/14 01:48:37;;;;;;;8.40;5.18;;;;;;;19.59;100.00;95714.75;5099360;28;20023;-66
2023/08/14 01:51:02;;;;;;;6.72;5.28;;;;;;;19.58;100.00;95707.75;5101004;28;20510;-66
2023/08/14 01:53:28;;;;;;;6.00;5.13;;;;;;;19.55;100.00;95702.81;5092682;28;20028;-66
2023/08/14 01:55:53;;;;;;;5.55;5.05;;;;;;;19.47;100.00;95690.44;5106678;28;20066;-66
2023/08/14 01:58:19;;;;;;;6.20;5.60;;;;;;;19.44;100.00;95679.34;5099038;28;20511;-66
2023/08/14 02:00:44;;;;;;;7.53;5.60;;;;;;;19.41;100.00;95671.72;5104471;28;20492;-66
2023/08/14 02:03:09;;;;;;;7.35;5.03;;;;;;;19.33;100.00;95662.03;5097040;28;20020;-66
2023/08/14 02:05:35;;;;;;;5.88;5.25;;;;;;;19.29;100.00;95653.63;5110659;28;20734;-66
2023/08/14 02:08:00;;;;;;;7.53;5.28;;;;;;;19.31;100.00;95635.56;5102426;28;20016;-66
2023/08/14 02:10:26;;;;;;;5.43;4.97;;;;;;;19.31;100.00;95626.72;5116949;27;20031;-66
2023/08/14 02:12:51;;;;;;;10.80;5.28;;;;;;;19.32;100.00;95612.34;5111370;28;20035;-66
2023/08/14 02:15:16;;;;;;;6.20;4.68;;;;;;;19.31;100.00;95605.38;5112398;27;20099;-66
2023/08/14 02:17:42;;;;;;;5.88;5.10;;;;;;;19.29;100.00;95591.41;5096437;28;20027;-66
2023/08/14 02:20:08;;;;;;;5.78;5.20;;;;;;;19.29;100.00;95580.72;5096741;28;20024;-66
2023/08/14 02:22:33;;;;;;;5.88;4.85;;;;;;;19.28;100.00;95576.41;5096998;28;20032;-66
2023/08/14 02:24:59;;;;;;;6.28;4.93;;;;;;;19.26;100.00;95562.44;5100072;28;20620;-66
2023/08/14 02:27:24;;;;;;;5.95;5.20;;;;;;;19.26;100.00;95536.59;5114442;27;20028;-66
2023/08/14 02:29:50;;;;;;;9.07;6.85;;;;;;;19.29;100.00;95498.00;5112700;28;20044;-66
2023/08/14 02:32:15;;;;;;;6.90;5.10;;;;;;;19.32;100.00;95502.94;5104919;27;20024;-66
2023/08/14 02:34:44;;;;;;;8.57;5.03;;;;;;;19.33;100.00;95509.91;5102481;27;20028;-66
2023/08/14 02:37:11;;;;;;;7.47;5.05;;;;;;;19.30;100.00;95507.66;5109025;28;20039;-66
2023/08/14 02:39:37;;;;;;;6.55;5.75;;;;;;;19.29;100.00;95514.00;5097992;28;20430;-66
2023/08/14 02:42:02;;;;;;;7.05;5.65;;;;;;;19.31;100.00;95509.28;5100513;28;20028;-66
2023/08/14 02:44:28;;;;;;;6.55;4.80;;;;;;;19.31;100.00;95509.28;5108517;28;20031;-66
2023/08/14 02:46:54;;;;;;;11.00;5.43;;;;;;;19.29;100.00;95508.66;5097028;28;20020;-66
2023/08/14 02:49:20;;;;;;;5.57;4.88;;;;;;;19.28;100.00;95502.53;5109060;27;20023;-66
2023/08/14 02:51:45;;;;;;;6.25;5.55;;;;;;;19.27;100.00;95494.72;5113639;28;20031;-66
2023/08/14 02:54:10;;;;;;;8.00;5.70;;;;;;;19.28;100.00;95483.84;5101875;28;20081;-66
2023/08/14 02:56:36;;;;;;;6.35;5.50;;;;;;;19.21;100.00;95471.50;5095861;28;20032;-66
2023/08/14 02:59:02;;;;;;;5.82;5.20;;;;;;;19.17;100.00;95455.06;5107889;28;20027;-66
2023/08/14 03:01:27;;;;;;;8.13;5.53;;;;;;;19.16;100.00;95448.09;5105423;28;20024;-66
2023/08/14 03:03:53;;;;;;;5.88;5.18;;;;;;;19.11;100.00;95438.00;5107721;28;20027;-66
2023/08/14 03:06:18;;;;;;;5.43;4.93;;;;;;;19.11;100.00;95435.34;5097318;28;20020;-66
2023/08/14 03:08:44;;;;;;;6.90;4.78;;;;;;;19.07;100.00;95434.09;5095959;28;20039;-66
2023/08/14 03:11:09;;;;;;;5.90;4.75;;;;;;;19.02;100.00;95416.06;5095744;28;20107;-66
2023/08/14 03:13:35;;;;;;;8.13;5.50;;;;;;;18.98;100.00;95384.63;5102768;28;20531;-66
2023/08/14 03:16:00;;;;;;;5.80;5.20;;;;;;;18.97;100.00;95356.31;5096625;28;20031;-66
2023/08/14 03:18:26;;;;;;;5.85;5.35;;;;;;;18.95;100.00;95281.00;5108831;28;20542;-66
2023/08/14 03:20:51;;;;;;;6.25;5.28;;;;;;;18.94;100.00;95260.69;5095664;28;20098;-66
2023/08/14 03:23:16;;;;;;;5.45;4.93;;;;;;;18.91;100.00;95256.59;5095401;28;20024;-66
2023/08/14 03:25:42;;;;;;;6.47;4.97;;;;;;;18.87;100.00;95258.81;5095461;28;20032;-66
2023/08/14 03:28:07;;;;;;;5.65;5.15;;;;;;;18.87;100.00;95253.50;5106770;27;20047;-66
2023/08/14 03:30:33;;;;;;;6.68;4.85;;;;;;;18.87;100.00;95253.50;5106804;28;20115;-66
2023/08/14 03:32:58;;;;;;;7.10;5.63;;;;;;;18.90;100.00;95231.78;5103006;27;20035;-66
2023/08/14 03:35:24;;;;;;;5.47;5.00;;;;;;;18.94;100.00;95236.69;5105682;28;20024;-66
2023/08/14 03:37:49;;;;;;;5.43;4.93;;;;;;;18.95;100.00;95249.81;5102606;28;20071;-66
2023/08/14 03:40:15;;;;;;;7.28;5.68;;;;;;;18.82;100.00;95231.97;5095336;28;20046;-66
2023/08/14 03:42:40;;;;;;;6.47;5.30;;;;;;;18.76;100.00;95222.94;5105218;28;20373;-66
2023/08/14 03:45:06;;;;;;;5.47;4.93;;;;;;;18.79;100.00;95231.53;5099905;28;20023;-66
2023/08/14 03:47:32;;;;;;;6.80;5.65;;;;;;;18.78;100.00;95227.22;5105179;28;20027;-66
2023/08/14 03:49:57;;;;;;;5.57;5.10;;;;;;;18.75;100.00;95236.47;5099415;28;20042;-66
2023/08/14 03:52:22;;;;;;;7.03;5.45;;;;;;;18.74;100.00;95224.19;5094988;28;20107;-66
2023/08/14 03:54:48;;;;;;;5.90;5.40;;;;;;;18.71;100.00;95228.06;5094930;28;20027;-67
2023/08/14 03:57:13;;;;;;;7.40;5.55;;;;;;;18.72;100.00;95232.38;5097459;28;20083;-66
2023/08/14 03:59:39;;;;;;;9.82;5.57;;;;;;;18.76;100.00;95230.13;5094607;28;20085;-66
2023/08/14 04:02:04;;;;;;;14.10;6.22;;;;;;;18.77;100.00;95226.44;5097910;28;20027;-66
2023/08/14 04:04:29;;;;;;;17.25;6.03;;;;;;;18.75;100.00;95228.47;5094648;28;20046;-67
2023/08/14 04:06:55;;;;;;;7.95;5.43;;;;;;;18.69;100.00;95215.97;5102130;28;20090;-66
2023/08/14 04:09:20;;;;;;;9.65;5.75;;;;;;;18.64;100.00;95197.94;5110632;28;20095;-66
2023/08/14 04:11:46;;;;;;;14.32;5.93;;;;;;;18.64;100.00;95179.25;5101478;28;20473;-66
2023/08/14 04:14:11;;;;;;;9.20;5.70;;;;;;;18.59;100.00;95165.72;5101074;28;20501;-67
2023/08/14 04:16:43;;;;;;;11.15;5.85;;;;;;;18.54;100.00;95150.34;5093347;28;20091;-66
2023/08/14 04:19:13;;;;;;;6.15;5.60;;;;;;;18.52;100.00;95130.25;5094304;28;20080;-66
2023/08/14 04:21:39;;;;;;;6.70;5.00;;;;;;;18.47;100.00;95118.38;5094520;28;20020;-66
2023/08/14 04:24:04;;;;;;;6.05;5.45;;;;;;;18.41;100.00;95081.88;5093299;28;20042;-66
2023/08/14 04:26:30;;;;;;;7.72;5.60;;;;;;;18.46;100.00;95078.59;5102257;27;20043;-66
2023/08/14 04:28:55;;;;;;;7.93;5.90;;;;;;;18.46;100.00;95081.28;5103130;28;20679;-67
2023/08/14 04:31:21;;;;;;;5.65;5.13;;;;;;;18.46;100.00;95086.59;5097846;28;20016;-66
2023/08/14 04:33:46;;;;;;;5.30;4.90;;;;;;;18.47;100.00;95069.59;5103126;27;20576;-66
2023/08/14 04:36:11;;;;;;;6.85;5.47;;;;;;;18.48;100.00;95052.56;5094882;28;20119;-66
2023/08/14 04:38:37;;;;;;;7.50;6.00;;;;;;;18.44;100.00;95048.66;5104553;28;20027;-66
2023/08/14 04:41:02;;;;;;;7.32;5.80;;;;;;;18.40;100.00;95026.94;5095256;28;20651;-66
2023/08/14 04:43:31;;;;;;;11.55;5.75;;;;;;;18.40;100.00;95018.97;5106242;28;20591;-66
2023/08/14 04:45:57;;;;;;;10.23;5.80;;;;;;;18.42;100.00;95008.06;5102903;28;20036;-66
2023/08/14 04:48:22;;;;;;;5.90;5.30;;;;;;;18.42;100.00;95000.91;5100604;28;20031;-66
2023/08/14 04:50:48;;;;;;;7.72;5.35;;;;;;;18.35;100.00;94993.97;5103803;27;20024;-66
2023/08/14 04:53:13;;;;;;;6.57;5.43;;;;;;;18.35;100.00;94989.47;5093754;28;20397;-66
2023/08/14 04:55:39;;;;;;;8.27;5.40;;;;;;;18.37;100.00;94999.88;5094203;28;20032;-66
2023/08/14 04:58:04;;;;;;;8.23;5.35;;;;;;;18.39;100.00;95014.66;5097365;28;20499;-66
2023/08/14 05:00:29;;;;;;;6.80;5.80;;;;;;;18.39;100.00;95014.66;5113783;28;20077;-66
2023/08/14 05:02:55;;;;;;;6.95;5.35;;;;;;;18.32;100.00;95017.31;5093945;28;20054;-66
2023/08/14 05:05:20;;;;;;;7.45;5.93;;;;;;;18.31;100.00;95018.34;5094026;28;20028;-66
2023/08/14 05:07:46;;;;;;;7.25;5.75;;;;;;;18.29;100.00;95012.41;5093701;28;20016;-66
2023/08/14 05:10:12;;;;;;;10.00;5.85;;;;;;;18.27;100.00;95009.16;5093968;28;20103;-66
2023/08/14 05:12:37;;;;;;;6.80;6.10;;;;;;;18.29;100.00;95007.09;5097930;28;20090;-66
2023/08/14 05:15:03;;;;;;;7.15;6.45;;;;;;;18.28;100.00;95002.78;5097788;28;20044;-66
2023/08/14 05:17:28;;;;;;;6.63;5.55;;;;;;;18.31;100.00;94994.38;5104199;28;20034;-66
2023/08/14 05:19:54;;;;;;;6.53;5.80;;;;;;;18.33;100.00;94989.66;5093831;28;20468;-66
2023/08/14 05:22:19;;;;;;;10.25;9.23;;;;;;;18.33;100.00;94987.00;5093940;28;20020;-66
2023/08/14 05:24:46;;;;;;;7.65;6.88;;;;;;;18.36;100.00;94976.94;5092539;28;20074;-66
2023/08/14 05:27:11;;;;;;;7.20;6.50;;;;;;;18.36;100.00;94937.81;5097951;28;20055;-66
2023/08/14 05:29:36;;;;;;;6.43;5.78;;;;;;;18.40;100.00;94936.34;5096406;28;20052;-66
2023/08/14 05:32:02;;;;;;;8.48;5.93;;;;;;;18.45;100.00;94941.03;5100352;28;20464;-66
2023/08/14 05:34:27;;;;;;;8.23;5.85;;;;;;;18.45;100.00;94946.38;5105548;28;20024;-66
2023/08/14 05:36:53;;;;;;;8.88;5.85;;;;;;;18.50;100.00;94957.22;5103900;28;20118;-66
2023/08/14 05:39:18;;;;;;;8.15;5.85;;;;;;;18.52;100.00;94965.00;5108406;28;20035;-66
2023/08/14 05:41:44;;;;;;;7.50;6.75;;;;;;;18.61;100.00;94967.22;5099846;28;20081;-66
2023/08/14 05:44:09;;;;;;;8.73;7.55;;;;;;;18.70;100.00;94985.69;5107322;28;20032;-66
2023/08/14 05:46:35;;;;;;;11.13;7.90;;;;;;;18.80;100.00;94996.72;5106625;28;20028;-66
2023/08/14 05:49:00;;;;;;;12.18;6.50;;;;;;;18.77;100.00;95018.47;5099477;27;20024;-66
2023/08/14 05:51:25;;;;;;;6.82;6.10;;;;;;;18.83;100.00;95030.94;5100541;28;20115;-66
2023/08/14 05:53:51;;;;;;;7.80;6.10;;;;;;;18.88;100.00;95039.13;5097118;28;20032;-66
2023/08/14 05:56:16;;;;;;;8.40;6.25;;;;;;;18.89;100.00;95056.75;5097271;28;20023;-66
2023/08/14 05:58:41;;;;;;;7.85;5.85;;;;;;;19.12;100.00;95050.19;5097107;28;20028;-66
2023/08/14 06:01:07;;;;;;;7.53;6.20;;;;;;;19.35;100.00;95045.34;5082423;28;20085;-66
2023/08/14 06:03:33;;;;;;;6.30;5.70;;;;;;;19.55;100.00;95058.56;5097089;28;20028;-66
2023/08/14 06:05:58;;;;;;;8.93;6.07;;;;;;;19.70;100.00;95071.66;5097077;28;20111;-66
2023/08/14 06:08:23;;;;;;;7.47;5.40;;;;;;;19.83;100.00;95090.25;5096741;28;20020;-66
2023/08/14 06:10:49;;;;;;;7.22;6.10;;;;;;;20.04;100.00;95104.34;5096846;28;20027;-66
2023/08/14 06:13:14;;;;;;;10.45;5.85;;;;;;;20.20;100.00;95121.69;5101836;28;20078;-66
2023/08/14 06:15:40;;;;;;;8.68;5.70;;;;;;;20.26;100.00;95136.88;5095352;28;20506;-65
2023/08/14 06:18:05;;;;;;;6.25;5.63;;;;;;;20.38;100.00;95150.38;5096400;28;20035;-66
2023/08/14 06:20:30;;;;;;;6.15;5.47;;;;;;;20.41;100.00;95170.47;5096859;28;20036;-66
2023/08/14 06:22:56;;;;;;;6.93;5.40;;;;;;;20.46;100.00;95195.53;5109819;28;20100;-66
2023/08/14 06:25:21;;;;;;;6.22;5.63;;;;;;;20.53;100.00;95202.69;5086199;28;20034;-66
2023/08/14 06:27:47;;;;;;;7.50;4.95;;;;;;;20.56;100.00;95221.78;5102523;28;20028;-66
2023/08/14 06:30:12;;;;;;;5.97;5.38;;;;;;;20.61;100.00;95223.81;5107748;28;20024;-66
2023/08/14 06:32:39;;;;;;;5.78;5.20;;;;;;;20.69;100.00;95231.56;5100172;28;20035;-66
2023/08/14 06:35:06;;;;;;;6.43;5.38;;;;;;;20.78;100.00;95248.19;5105037;28;20111;-66
2023/08/14 06:37:31;;;;;;;5.72;5.05;;;;;;;20.93;100.00;95255.91;5101918;28;20032;-66
2023/08/14 06:39:57;;;;;;;7.63;5.38;;;;;;;21.09;100.00;95237.69;5107922;28;20539;-66
2023/08/14 06:42:22;;;;;;;5.70;5.20;;;;;;;21.20;100.00;95246.84;5102959;28;20023;-66
2023/08/14 06:44:48;;;;;;;6.05;5.45;;;;;;;21.34;100.00;95259.09;5100676;28;20032;-66
2023/08/14 06:47:13;;;;;;;5.82;5.20;;;;;;;21.52;100.00;95254.78;5114059;28;20023;-66
2023/08/14 06:49:38;;;;;;;7.00;4.85;;;;;;;21.73;100.00;95253.56;5115396;27;20035;-66
2023/08/14 06:52:04;;;;;;;5.18;4.68;;;;;;;21.94;100.00;95260.31;5094502;28;20060;-66
2023/08/14 06:54:30;;;;;;;11.02;6.57;;;;;;;22.07;100.00;95258.53;5109315;28;20031;-66
2023/08/14 06:56:55;;;;;;;6.20;4.95;;;;;;;22.02;100.00;95268.06;5096332;28;20024;-66
2023/08/14 06:59:21;;;;;;;5.80;4.97;;;;;;;22.06;100.00;95276.47;5095754;28;20511;-66
2023/08/14 07:01:46;;;;;;;5.55;5.05;;;;;;;22.39;100.00;95277.91;5100614;28;20034;-66
2023/08/14 07:04:12;;;;;;;5.05;4.55;;;;;;;22.72;100.00;95276.66;5097542;28;20057;-66
2023/08/14 07:06:37;;;;;;;5.38;4.20;;;;;;;22.76;100.00;95277.03;5107772;28;20091;-66
2023/08/14 07:09:02;;;;;;;5.65;4.50;;;;;;;22.73;100.00;95278.28;5097519;28;20146;-66
2023/08/14 07:11:28;;;;;;;6.82;5.25;;;;;;;22.66;100.00;95287.47;5115743;28;20035;-66
2023/08/14 07:13:54;;;;;;;5.15;4.75;;;;;;;22.48;100.00;95285.66;5104061;28;20205;-66
2023/08/14 07:16:20;;;;;;;8.57;5.22;;;;;;;22.37;100.00;95277.31;5108359;28;20509;-66
2023/08/14 07:18:46;;;;;;;6.88;5.38;;;;;;;22.29;100.00;95281.13;5102156;28;20027;-66
2023/08/14 07:21:11;;;;;;;7.15;4.65;;;;;;;22.27;100.00;95283.22;5100975;28;20024;-66
2023/08/14 07:23:37;;;;;;;5.88;4.50;;;;;;;22.31;100.00;95353.28;5095483;28;20032;-66
2023/08/14 07:26:11;;;;;;;5.90;4.60;;;;;;;22.51;100.00;95350.41;5099258;27;20060;-67
2023/08/14 07:28:38;;;;;;;6.00;4.85;;;;;;;22.88;100.00;95350.34;5099821;28;20059;-66
2023/08/14 07:31:04;;;;;;;7.90;4.72;;;;;;;22.91;100.00;95370.53;5095314;28;20751;-66
2023/08/14 07:33:30;;;;;;;6.97;4.75;;;;;;;22.88;100.00;95385.22;5099453;27;20019;-66
2023/08/14 07:35:56;;;;;;;5.82;4.50;;;;;;;22.85;100.00;95395.59;5093581;28;20392;-66
2023/08/14 07:38:21;;;;;;;7.55;4.75;;;;;;;22.89;100.00;95396.75;5095301;28;20549;-66
2023/08/14 07:40:47;;;;;;;7.72;5.07;;;;;;;23.00;100.00;95404.06;5095634;28;20027;-66
2023/08/14 07:43:12;;;;;;;6.05;4.85;;;;;;;23.23;100.00;95401.66;5110327;28;20032;-68
2023/08/14 07:45:37;;;;;;;6.50;4.35;;;;;;;23.20;100.00;95418.25;5100358;28;20028;-67
2023/08/14 07:48:03;;;;;;;7.95;5.00;;;;;;;23.57;100.00;95413.56;5099526;28;20092;-68
2023/08/14 07:50:28;;;;;;;7.75;5.03;;;;;;;24.20;100.00;95407.78;5109463;27;20035;-67
2023/08/14 07:52:54;;;;;;;6.47;5.22;;;;;;;25.04;100.00;95403.03;5099579;28;20024;-67
2023/08/14 07:55:19;;;;;;;5.72;4.50;;;;;;;25.62;100.00;95429.13;5077060;28;20069;-68
2023/08/14 07:57:46;;;;;;;5.90;4.60;;;;;;;26.07;100.00;95474.06;5094973;28;20121;-67
2023/08/14 08:00:13;;;;;;;4.60;4.20;;;;;;;25.61;100.00;95511.88;5093258;28;20032;-65
2023/08/14 08:02:39;;;;;;;7.35;4.43;;;;;;;25.06;100.00;95535.56;5106661;28;20042;-65
2023/08/14 08:05:05;;;;;;;5.82;4.50;;;;;;;24.70;100.00;95529.41;5093689;28;20028;-66
2023/08/14 08:07:30;;;;;;;5.35;4.68;;;;;;;24.39;100.00;95529.53;5097640;28;20028;-65
2023/08/14 08:09:55;;;;;;;4.80;4.32;;;;;;;24.10;100.00;95526.69;5105428;28;20084;-65
2023/08/14 08:12:21;;;;;;;5.32;4.65;;;;;;;23.88;100.00;95531.75;5097250;28;20020;-65
2023/08/14 08:14:47;;;;;;;5.03;4.53;;;;;;;24.13;100.00;95547.75;5100676;27;20036;-65
2023/08/14 08:17:12;;;;;;;8.23;4.80;;;;;;;24.09;100.00;95561.88;5093336;28;20016;-65
2023/08/14 08:19:37;;;;;;;7.60;5.32;;;;;;;24.35;100.00;95549.88;5107087;28;20056;-65
2023/08/14 08:22:03;;;;;;;10.02;6.75;;;;;;;24.92;100.00;95561.91;5094320;28;20027;-68
2023/08/14 08:24:28;;;;;;;7.72;4.57;;;;;;;25.20;100.00;95589.16;5094149;28;20036;-67
2023/08/14 08:26:53;;;;;;;4.95;4.50;;;;;;;25.66;100.00;95614.38;5098715;27;20016;-68
2023/08/14 08:29:19;;;;;;;4.88;4.47;;;;;;;26.21;100.00;95652.66;5093610;28;20044;-68
2023/08/14 08:31:44;;;;;;;6.07;4.47;;;;;;;26.25;100.00;95701.53;5100363;28;20032;-68
2023/08/14 08:34:10;;;;;;;5.38;3.92;;;;;;;26.40;100.00;95714.47;5103973;27;20027;-68
2023/08/14 08:36:35;;;;;;;4.18;3.80;;;;;;;26.80;100.00;95742.44;5094294;28;20048;-68
2023/08/14 08:39:00;;;;;;;5.25;4.07;;;;;;;27.35;100.00;95751.72;5094387;28;20097;-68
2023/08/14 08:41:31;;;;;;;4.95;3.80;;;;;;;27.80;100.00;95800.50;5094056;28;20024;-65
2023/08/14 08:44:10;;;;;;;5.22;3.63;;;;;;;28.22;100.00;95802.72;5094068;28;20798;-65
2023/08/14 08:46:41;;;;;;;6.25;3.72;;;;;;;28.59;100.00;95833.72;5104041;28;20032;-65
2023/08/14 08:49:08;;;;;;;4.28;3.60;;;;;;;28.72;100.00;95846.03;5097529;27;20027;-66
2023/08/14 08:51:34;;;;;;;5.22;3.38;;;;;;;28.92;100.00;95861.72;5100262;28;20059;-66
2023/08/14 08:54:00;;;;;;;6.45;3.35;;;;;;;28.96;100.00;95886.41;5102931;28;20023;-66
2023/08/14 08:56:26;;;;;;;6.93;3.38;;;;;;;29.10;100.00;95886.81;5093763;28;20020;-66
2023/08/14 08:58:52;;;;;;;3.67;3.00;;;;;;;29.15;100.00;95890.41;5094663;28;20024;-66
2023/08/14 09:01:20;;;;;;;5.38;3.03;;;;;;;29.29;100.00;95912.50;5102974;28;20055;-65
2023/08/14 09:03:46;;;;;;;3.58;3.15;;;;;;;29.44;100.00;95919.97;5093711;28;20027;-65
2023/08/14 09:06:12;;;;;;;4.95;3.30;;;;;;;29.44;100.00;95933.53;5093738;28;20024;-66
2023/08/14 09:08:37;;;;;;;7.25;3.50;;;;;;;29.56;100.00;95946.94;5094658;28;20038;-66
2023/08/14 09:11:03;;;;;;;7.80;3.20;;;;;;;29.77;100.00;95970.72;5095137;28;20071;-66
2023/08/14 09:13:29;;;;;;;3.97;3.15;;;;;;;29.75;100.00;95983.72;5104176;28;20103;-66
2023/08/14 09:15:54;;;;;;;4.38;3.05;;;;;;;29.61;100.00;95981.44;5101701;28;20032;-65
2023/08/14 09:18:19;;;;;;;5.72;2.50;;;;;;;29.71;100.00;95983.41;5096620;28;20098;-66
2023/08/14 09:20:45;;;;;;;5.28;3.25;;;;;;;29.57;100.00;95983.03;5106967;28;20027;-66
2023/08/14 09:23:12;;;;;;;4.13;3.60;;;;;;;29.70;100.00;95990.72;5113725;28;20020;-65
2023/08/14 09:25:40;;;;;;;4.40;2.90;;;;;;;29.94;100.00;96003.16;5097588;28;20412;-64
2023/08/14 09:28:10;;;;;;;3.67;2.95;;;;;;;30.36;100.00;95993.44;5101950;27;20044;-66
2023/08/14 09:30:36;;;;;;;4.78;3.08;;;;;;;30.53;100.00;95993.28;5099303;28;20127;-66
2023/08/14 09:33:06;;;;;;;3.22;2.92;;;;;;;30.37;100.00;95993.19;5106274;27;20590;-66
2023/08/14 09:35:32;;;;;;;5.53;3.53;;;;;;;30.45;100.00;96021.75;5098887;28;20077;-66
2023/08/14 09:37:58;;;;;;;4.07;2.92;;;;;;;30.55;100.00;96018.28;5104728;28;20032;-66
2023/08/14 09:40:24;;;;;;;4.40;2.50;;;;;;;30.54;100.00;96022.88;5102268;28;20067;-66
2023/08/14 09:42:50;;;;;;;6.07;3.00;;;;;;;30.52;100.00;96024.25;5110001;28;20027;-65
2023/08/14 09:45:23;;;;;;;6.65;2.83;;;;;;;30.41;100.00;96020.66;5099064;28;20114;-65
2023/08/14 09:47:50;;;;;;;2.97;2.67;;;;;;;30.53;100.00;96015.81;5096888;28;20039;-66
2023/08/14 09:50:16;;;;;;;4.65;3.17;;;;;;;30.83;100.00;96019.81;5111697;27;20031;-66
2023/08/14 09:52:45;;;;;;;4.88;3.13;;;;;;;30.98;100.00;96023.69;5101420;28;20032;-68
2023/08/14 09:55:13;;;;;;;4.20;3.10;;;;;;;31.04;100.00;96017.19;5096150;28;20036;-66
2023/08/14 09:57:38;;;;;;;3.65;2.97;;;;;;;30.89;100.00;96015.22;5097218;28;20036;-66
2023/08/14 10:00:04;;;;;;;3.83;2.92;;;;;;;30.84;100.00;96007.06;5097261;28;20516;-65
2023/08/14 10:02:32;;;;;;;4.30;2.78;;;;;;;30.81;100.00;95994.00;5110406;28;20019;-66
2023/08/14 10:05:00;;;;;;;4.00;2.72;;;;;;;30.68;100.00;95987.16;5109507;28;20518;-66
2023/08/14 10:07:26;;;;;;;3.33;2.83;;;;;;;30.49;100.00;95984.84;5111141;28;20114;-65
2023/08/14 10:09:57;;;;;;;5.32;3.38;;;;;;;30.56;100.00;95988.13;5108745;28;20020;-66
2023/08/14 10:12:27;;;;;;;6.07;2.90;;;;;;;30.94;100.00;95963.59;5103887;28;20620;-66
2023/08/14 10:15:08;;;;;;;2.95;2.65;;;;;;;30.65;100.00;95963.22;5110210;28;20042;-65
2023/08/14 10:17:45;;;;;;;4.65;2.92;;;;;;;30.56;100.00;95955.53;5096816;28;20080;-66
2023/08/14 10:20:15;;;;;;;4.97;3.13;;;;;;;30.81;100.00;95956.75;5096708;28;20168;-65
2023/08/14 10:22:41;;;;;;;3.22;2.63;;;;;;;31.10;100.00;95947.34;5096716;28;20028;-66
2023/08/14 10:25:07;;;;;;;4.03;2.67;;;;;;;31.33;100.00;95954.25;5096920;28;20028;-67
2023/08/14 10:27:34;;;;;;;5.10;3.30;;;;;;;31.20;100.00;95952.88;5108942;27;20384;-66
2023/08/14 10:30:00;;;;;;;2.95;2.75;;;;;;;31.55;100.00;95954.00;5102439;28;20524;-66
2023/08/14 10:32:27;;;;;;;5.63;2.88;;;;;;;31.55;100.00;95942.31;5114014;27;20103;-66
2023/08/14 10:34:54;;;;;;;5.00;3.10;;;;;;;31.41;100.00;95931.97;5103329;28;20043;-67
2023/08/14 10:37:29;;;;;;;5.32;3.58;;;;;;;31.30;100.00;95925.69;5103370;28;20028;-66
2023/08/14 10:40:23;;;;;;;4.68;3.05;;;;;;;31.51;100.00;95924.91;5096402;28;20019;-66
2023/08/14 10:42:55;;;;;;;4.47;2.90;;;;;;;31.74;100.00;95912.66;5096315;28;20020;-66
2023/08/14 10:45:25;;;;;;;6.07;3.10;;;;;;;31.78;100.00;95908.34;5097976;28;20027;-67
2023/08/14 10:47:52;;;;;;;5.22;2.83;;;;;;;31.70;100.00;95903.41;5101906;28;20035;-66
2023/08/14 10:50:19;;;;;;;4.85;3.30;;;;;;;32.04;100.00;95899.34;5100579;28;20026;-66
2023/08/14 10:52:46;;;;;;;5.18;2.50;;;;;;;31.93;100.00;95885.72;5096118;28;20080;-67
2023/08/14 10:55:24;;;;;;;5.43;3.50;;;;;;;32.12;100.00;95880.53;5096275;28;20027;-66
2023/08/14 10:57:49;;;;;;;3.00;2.80;;;;;;;32.37;100.00;95886.19;5097550;28;20028;-66
2023/08/14 11:00:23;;;;;;;4.80;3.10;;;;;;;32.20;100.00;95879.16;5106407;27;20024;-69
2023/08/14 11:03:03;;;;;;;3.80;2.70;;;;;;;32.05;100.00;95873.75;5109937;28;20037;-66
2023/08/14 11:05:38;;;;;;;3.65;3.00;;;;;;;32.15;100.00;95868.25;5098113;28;20428;-66
2023/08/14 11:08:05;;;;;;;3.25;2.88;;;;;;;32.25;100.00;95870.97;5098845;28;20036;-67
2023/08/14 11:10:31;;;;;;;4.40;3.20;;;;;;;32.80;100.00;95866.69;5097737;28;20514;-67
2023/08/14 11:12:57;;;;;;;2.97;2.58;;;;;;;32.72;100.00;95859.91;5102319;28;20028;-66
2023/08/14 11:15:23;;;;;;;4.85;2.50;;;;;;;32.63;100.00;95862.41;5100954;28;20023;-67
2023/08/14 11:17:49;;;;;;;5.50;2.92;;;;;;;32.55;100.00;95846.66;5103175;28;20458;-66
2023/08/14 11:20:15;;;;;;;3.50;2.92;;;;;;;32.75;100.00;95843.00;5108739;28;20477;-67
2023/08/14 11:22:44;;;;;;;4.57;2.75;;;;;;;33.13;100.00;95840.63;5095545;28;20017;-67